Decoded Metar for KEEN (KEENE/DILLANT in NH, USA) (IATA:EEN) | Meteo·Mobile Aviation Weather
aviador You're here:

KEEN Decoded Metar

KEENE/DILLANT in NH, USA
Report Time2018-11-17 06:56:00
UTC Time2018-11-17 09:00:59
Flight Rules Old
Wind190° at 04 kt
W.Decomp.*RWY 20: 4.0 kt HW 0.3 kt RCW
RWY 14: 1.7 kt HW 3.6 kt RCW
W.Rank190° ranks 2
Current wind is below 190° avg. (6.1)
Visibility9999 m
Phenomena:N/A
Clouds:Overcast 039 Hf
Expected CloudBase > 800 ft AGL from Temp-Dew spread
Ceiling3,900 ft
Temp01°C (ISA -13)
Dew Point-1°C (87% RH)
AAT-2.6°C
QNH1010 hPa
Density Alt-915 ft
Elevation489 ft
Report Wrong Elevation
Raw Report
KEEN 170656Z AUTO 19004KT 10SM OVC039 01/M01 A2982 RMK AO2 SLP121
T00111011 FZRANO $=

Extra information for KEEN:More info

Metar Taf Metar & Taf Last 4 Metars F.Rules Stats Wind Profile Meteogram Temp Stats Airport Information Weather charts Add Link Nearby VenuesMetar ALERT Operation Metar Decoded Social comments

AIRNAV info for KEEN